Terminal Aerodrome Forecast
Issued by NWS Grand Junction, CO

Current Version | Previous Version | Text Only | Print | Product List | Glossary On
Versions: 1 2 3 4 5 6 7 8 9 10 11 12 13 14 15 16 17
000
FTUS45 KGJT 241120
TAFGJT
TAF
KGJT 241120Z 2412/2512 09003KT P6SM SKC
     FM241600 21004KT P6SM SKC
     FM241800 28005KT P6SM SKC
     FM250100 34007KT P6SM SKC
     FM250400 04006KT P6SM SKC=

USA.gov is the U.S. government's official web portal to all federal, state and local government web resources and services.